createdAt,value
2022-11-02T00:01:47.980Z,4.53
2022-11-02T00:04:35.293Z,4.73
2022-11-02T00:07:23.964Z,4.10
2022-11-02T00:10:11.775Z,5.10
2022-11-02T00:12:59.216Z,4.50
2022-11-02T00:15:47.144Z,4.50
2022-11-02T00:18:35.774Z,4.70
2022-11-02T00:21:25.068Z,4.27
2022-11-02T00:24:14.724Z,4.70
2022-11-02T00:27:02.581Z,4.87
2022-11-02T00:29:50.484Z,5.07
2022-11-02T00:32:37.930Z,4.67
2022-11-02T00:35:24.700Z,5.00
2022-11-02T00:38:12.446Z,4.87
2022-11-02T00:41:00.898Z,4.60
2022-11-02T00:43:48.159Z,4.80
2022-11-02T00:46:35.661Z,4.77
2022-11-02T00:49:23.072Z,5.00
2022-11-02T00:52:10.730Z,4.30
2022-11-02T00:54:57.630Z,4.30
2022-11-02T00:57:46.363Z,4.33
2022-11-02T01:00:33.679Z,4.43
2022-11-02T01:03:20.929Z,4.57
2022-11-02T01:06:10.515Z,4.60
2022-11-02T01:08:57.829Z,4.13
2022-11-02T01:11:45.022Z,4.30
2022-11-02T01:14:35.355Z,4.67
2022-11-02T01:17:22.700Z,4.17
2022-11-02T01:20:11.183Z,4.33
2022-11-02T01:22:59.314Z,3.87
2022-11-02T01:25:46.959Z,3.93
2022-11-02T01:28:34.500Z,4.10
2022-11-02T01:31:23.422Z,3.67
2022-11-02T01:34:13.149Z,3.20
2022-11-02T01:37:00.306Z,3.70
2022-11-02T01:39:47.426Z,3.70
2022-11-02T01:42:34.681Z,3.97
2022-11-02T01:45:22.103Z,4.03
2022-11-02T01:48:10.836Z,3.47
2022-11-02T01:50:58.941Z,3.30
2022-11-02T01:53:48.851Z,3.60
2022-11-02T01:56:37.187Z,3.47
2022-11-02T01:59:28.803Z,3.50
2022-11-02T02:02:20.810Z,3.30
2022-11-02T02:05:11.755Z,3.33
2022-11-02T02:07:59.620Z,3.33
2022-11-02T02:10:46.883Z,3.43
2022-11-02T02:13:34.698Z,3.13
2022-11-02T02:16:29.886Z,2.87
2022-11-02T02:19:35.666Z,3.30
2022-11-02T02:22:42.944Z,3.03
2022-11-02T02:25:53.709Z,3.00
2022-11-02T02:28:48.693Z,3.67
2022-11-02T02:31:39.383Z,3.40
2022-11-02T02:34:31.631Z,2.97
2022-11-02T02:37:22.680Z,3.03
2022-11-02T02:40:16.600Z,3.50
2022-11-02T02:43:09.106Z,3.13
2022-11-02T02:46:01.849Z,3.03
2022-11-02T02:48:51.282Z,3.93
2022-11-02T02:51:39.057Z,3.13
2022-11-02T02:54:31.745Z,3.17
2022-11-02T02:57:21.832Z,2.57
2022-11-02T03:00:14.909Z,2.80
2022-11-02T03:03:05.478Z,3.00
2022-11-02T03:06:16.718Z,2.93
2022-11-02T03:09:15.803Z,3.30
2022-11-02T03:12:17.581Z,3.23
2022-11-02T03:15:14.325Z,2.30
2022-11-02T03:18:14.634Z,2.87
2022-11-02T03:21:08.730Z,2.57
2022-11-02T03:24:00.937Z,3.03
2022-11-02T03:26:55.434Z,3.03
2022-11-02T03:29:48.380Z,2.37
2022-11-02T03:32:41.180Z,2.43
2022-11-02T03:35:36.955Z,3.03
2022-11-02T03:38:33.265Z,2.57
2022-11-02T03:41:23.877Z,2.10
2022-11-02T03:44:15.736Z,2.43
2022-11-02T03:47:04.267Z,2.50
2022-11-02T03:49:53.635Z,2.57
2022-11-02T03:52:46.186Z,2.03
2022-11-02T03:55:37.640Z,2.43
2022-11-02T03:58:24.857Z,2.33
2022-11-02T04:01:13.249Z,2.73
2022-11-02T04:04:00.428Z,2.00
2022-11-02T04:06:49.697Z,2.43
2022-11-02T04:09:39.697Z,2.07
2022-11-02T04:12:44.126Z,2.10
2022-11-02T04:15:31.044Z,2.17
2022-11-02T04:18:35.717Z,2.07
2022-11-02T04:21:23.075Z,1.90
2022-11-02T04:24:27.843Z,2.17
2022-11-02T04:27:20.506Z,2.10
2022-11-02T04:30:09.655Z,2.03
2022-11-02T04:33:14.839Z,2.10
2022-11-02T04:36:09.996Z,1.90
2022-11-02T04:38:58.592Z,1.87
2022-11-02T04:41:48.493Z,1.80
2022-11-02T04:44:37.168Z,1.80
2022-11-02T04:47:29.119Z,2.37
2022-11-02T04:50:16.824Z,2.03
2022-11-02T04:53:07.003Z,2.03
2022-11-02T04:55:54.182Z,1.97
2022-11-02T04:58:41.664Z,1.87
2022-11-02T05:01:31.222Z,1.90
2022-11-02T05:04:20.265Z,2.03
2022-11-02T05:07:09.908Z,2.30
2022-11-02T05:09:57.394Z,2.27
2022-11-02T05:12:45.286Z,2.23
2022-11-02T05:15:33.861Z,2.20
2022-11-02T05:18:25.080Z,1.93
2022-11-02T05:21:13.353Z,2.03
2022-11-02T05:24:00.475Z,2.00
2022-11-02T05:26:52.960Z,1.57
2022-11-02T05:29:42.707Z,2.00
2022-11-02T05:32:31.090Z,2.20
2022-11-02T05:35:20.395Z,1.93
2022-11-02T05:38:07.548Z,2.43
2022-11-02T05:40:55.563Z,1.90
2022-11-02T05:43:43.454Z,1.80
2022-11-02T05:46:33.498Z,1.83
2022-11-02T05:49:20.864Z,1.90
2022-11-02T05:52:09.360Z,1.80
2022-11-02T05:54:56.637Z,2.23
2022-11-02T05:57:43.923Z,1.87
2022-11-02T06:00:31.113Z,1.63
2022-11-02T06:03:18.423Z,1.50
2022-11-02T06:06:07.653Z,2.10
2022-11-02T06:08:56.135Z,2.43
2022-11-02T06:11:43.427Z,1.73
2022-11-02T06:14:30.617Z,1.63
2022-11-02T06:17:17.972Z,1.70
2022-11-02T06:20:05.988Z,1.90
2022-11-02T06:22:53.230Z,2.20
2022-11-02T06:25:41.945Z,2.00
2022-11-02T06:28:30.818Z,1.70
2022-11-02T06:31:18.266Z,2.30
2022-11-02T06:34:05.536Z,2.30
2022-11-02T06:36:52.738Z,1.70
2022-11-02T06:39:39.920Z,1.87
2022-11-02T06:42:28.594Z,1.77
2022-11-02T06:45:15.771Z,1.80
2022-11-02T06:48:03.100Z,1.50
2022-11-02T06:50:50.410Z,1.97
2022-11-02T06:53:37.621Z,1.87
2022-11-02T06:56:25.066Z,2.00
2022-11-02T06:59:13.829Z,1.47
2022-11-02T07:02:01.259Z,2.10
2022-11-02T07:04:48.733Z,2.20
2022-11-02T07:07:36.139Z,1.90
2022-11-02T07:10:23.557Z,1.80
2022-11-02T07:13:10.487Z,1.90
2022-11-02T07:15:59.005Z,1.83
2022-11-02T07:18:46.233Z,2.20
2022-11-02T07:21:33.594Z,2.10
2022-11-02T07:24:20.712Z,2.20
2022-11-02T07:27:07.944Z,1.90
2022-11-02T07:29:55.289Z,1.80
2022-11-02T07:32:43.850Z,2.13
2022-11-02T07:35:31.136Z,1.80
2022-11-02T07:38:18.475Z,1.83
2022-11-02T07:41:06.195Z,2.47
2022-11-02T07:43:53.160Z,2.00
2022-11-02T07:46:52.596Z,2.30
2022-11-02T07:49:41.211Z,2.00
2022-11-02T07:52:28.487Z,1.70
2022-11-02T07:55:16.927Z,2.37
2022-11-02T07:58:05.856Z,1.93
2022-11-02T08:00:59.473Z,1.73
2022-11-02T08:03:46.897Z,1.60
2022-11-02T08:06:35.942Z,1.73
2022-11-02T08:09:23.134Z,1.83
2022-11-02T08:12:10.508Z,1.50
2022-11-02T08:14:59.001Z,1.23
2022-11-02T08:17:48.295Z,1.50
2022-11-02T08:20:37.199Z,1.63
2022-11-02T08:23:26.717Z,1.80
2022-11-02T08:26:13.725Z,1.60
2022-11-02T08:29:01.112Z,2.00
2022-11-02T08:31:49.370Z,1.55
2022-11-02T08:34:36.693Z,1.80
2022-11-02T08:37:24.017Z,1.50
2022-11-02T08:40:13.536Z,1.65
2022-11-02T08:43:01.883Z,2.28
2022-11-02T08:48:55.626Z,1.55
2022-11-02T08:51:42.851Z,1.40
2022-11-02T08:54:30.076Z,1.15
2022-11-02T08:57:18.605Z,1.87
2022-11-02T09:00:06.757Z,1.70
2022-11-02T09:03:01.770Z,1.67
2022-11-02T09:05:49.183Z,2.45
2022-11-02T09:08:36.241Z,1.90
2022-11-02T09:11:23.481Z,1.85
2022-11-02T09:14:12.266Z,1.58
2022-11-02T09:16:59.314Z,1.73
2022-11-02T09:19:46.648Z,1.60
2022-11-02T09:22:33.783Z,1.38
2022-11-02T09:25:21.173Z,1.60
2022-11-02T09:28:09.301Z,1.45
2022-11-02T09:30:58.110Z,1.35
2022-11-02T09:33:45.259Z,1.60
2022-11-02T09:36:32.173Z,1.50
2022-11-02T09:39:19.077Z,1.27
2022-11-02T09:42:18.935Z,1.60
2022-11-02T09:45:08.973Z,1.40
2022-11-02T09:48:24.992Z,1.38
2022-11-02T09:51:13.026Z,1.40
2022-11-02T09:54:10.453Z,1.50
2022-11-02T09:57:05.408Z,1.85
2022-11-02T09:59:52.434Z,1.40
2022-11-02T10:02:51.906Z,1.42
2022-11-02T10:05:46.145Z,1.40
2022-11-02T10:08:42.330Z,2.63
2022-11-02T10:11:43.493Z,5.40
2022-11-02T10:14:33.955Z,1.75
2022-11-02T10:17:24.099Z,1.60
2022-11-02T10:20:23.718Z,1.40
2022-11-02T10:23:20.848Z,1.63
2022-11-02T10:26:13.984Z,1.33
2022-11-02T10:29:05.403Z,1.40
2022-11-02T10:31:52.745Z,1.50
2022-11-02T10:34:41.337Z,1.77
2022-11-02T10:37:46.776Z,1.60
2022-11-02T10:40:47.475Z,1.20
2022-11-02T10:43:51.908Z,1.58
2022-11-02T10:46:47.073Z,1.60
2022-11-02T10:49:58.912Z,1.63
2022-11-02T10:52:47.403Z,1.42
2022-11-02T10:55:44.244Z,1.40
2022-11-02T10:58:34.684Z,1.23
2022-11-02T11:01:21.970Z,1.38
2022-11-02T11:04:22.109Z,1.80
2022-11-02T11:07:15.785Z,1.15
2022-11-02T11:10:03.336Z,1.38
2022-11-02T11:12:52.049Z,1.52
2022-11-02T11:15:46.465Z,1.45
2022-11-02T11:21:42.597Z,1.38
2022-11-02T11:24:31.538Z,1.40
2022-11-02T11:27:20.627Z,1.48
2022-11-02T11:30:54.058Z,1.45
2022-11-02T11:33:34.322Z,1.40
2022-11-02T11:39:25.357Z,0.90
2022-11-02T11:42:18.789Z,1.45
2022-11-02T11:45:18.941Z,1.58
2022-11-02T11:48:20.917Z,1.38
2022-11-02T11:51:27.779Z,1.25
2022-11-02T11:54:25.563Z,1.63
2022-11-02T11:57:25.920Z,1.45
2022-11-02T12:00:29.001Z,1.77
2022-11-02T12:03:16.322Z,1.30
2022-11-02T12:06:13.817Z,1.35
2022-11-02T12:09:07.700Z,1.33
2022-11-02T12:12:00.418Z,1.67
2022-11-02T12:15:00.333Z,1.60
2022-11-02T12:18:08.025Z,1.55
2022-11-02T12:21:06.913Z,1.30
2022-11-02T12:24:13.179Z,1.67
2022-11-02T12:27:10.099Z,1.25
2022-11-02T12:30:11.978Z,1.30
2022-11-02T12:33:16.504Z,0.90
2022-11-02T12:36:13.422Z,1.13
2022-11-02T12:39:08.075Z,1.30
2022-11-02T12:42:08.471Z,1.60
2022-11-02T12:45:09.477Z,1.20
2022-11-02T12:47:59.464Z,1.65
2022-11-02T12:50:58.921Z,1.25
2022-11-02T12:53:49.995Z,1.35
2022-11-02T12:56:44.854Z,1.55
2022-11-02T12:59:34.350Z,1.20
2022-11-02T13:02:25.394Z,1.30
2022-11-02T13:05:17.641Z,1.35
2022-11-02T13:08:15.670Z,1.10
2022-11-02T13:11:07.354Z,1.05
2022-11-02T13:13:58.413Z,1.27
2022-11-02T13:16:50.143Z,1.60
2022-11-02T13:19:41.081Z,1.13
2022-11-02T13:22:34.426Z,1.00
2022-11-02T13:25:28.577Z,1.00
2022-11-02T13:28:20.380Z,1.20
2022-11-02T13:31:15.291Z,1.10
2022-11-02T13:34:06.170Z,1.23
2022-11-02T13:36:53.157Z,1.10
2022-11-02T13:39:43.362Z,1.45
2022-11-02T13:43:05.256Z,1.27
2022-11-02T13:46:23.837Z,1.27
2022-11-02T13:49:16.868Z,1.40
2022-11-02T13:52:10.678Z,1.10
2022-11-02T13:55:03.590Z,1.52
2022-11-02T13:57:56.347Z,1.20
2022-11-02T14:00:46.109Z,2.55
2022-11-02T14:03:43.516Z,1.17
2022-11-02T14:06:34.541Z,1.10
2022-11-02T14:09:30.331Z,1.20
2022-11-02T14:12:29.480Z,1.30
2022-11-02T14:15:42.561Z,1.20
2022-11-02T14:18:31.843Z,1.38
2022-11-02T14:21:42.027Z,1.20
2022-11-02T14:24:55.492Z,1.10
2022-11-02T14:27:42.456Z,1.40
2022-11-02T14:30:48.681Z,1.30
2022-11-02T14:33:54.497Z,1.50
2022-11-02T14:36:53.958Z,1.25
2022-11-02T14:39:49.440Z,1.30
2022-11-02T14:42:53.060Z,1.60
2022-11-02T14:46:09.867Z,2.25
2022-11-02T14:49:00.371Z,1.10
2022-11-02T14:52:02.526Z,1.10
2022-11-02T14:54:54.447Z,1.40
2022-11-02T14:57:44.791Z,1.20
2022-11-02T15:00:37.873Z,1.58
2022-11-02T15:03:35.690Z,1.15
2022-11-02T15:06:25.516Z,1.38
2022-11-02T15:09:12.563Z,1.65
2022-11-02T15:12:02.144Z,1.08
2022-11-02T15:14:55.934Z,1.50
2022-11-02T15:17:54.419Z,1.10
2022-11-02T15:20:46.237Z,1.25
2022-11-02T15:26:43.693Z,1.48
2022-11-02T15:29:38.443Z,2.33
2022-11-02T15:32:27.978Z,1.50
2022-11-02T15:35:19.127Z,1.20
2022-11-02T15:38:17.419Z,1.38
2022-11-02T15:41:16.136Z,1.20
2022-11-02T15:44:25.897Z,1.20
2022-11-02T15:47:21.408Z,1.15
2022-11-02T15:50:21.350Z,1.58
2022-11-02T15:53:26.582Z,1.38
2022-11-02T15:56:33.875Z,1.33
2022-11-02T15:59:39.078Z,1.20
2022-11-02T16:02:28.753Z,1.17
2022-11-02T16:05:23.437Z,1.60
2022-11-02T16:08:24.954Z,1.40
2022-11-02T16:11:17.207Z,1.17
2022-11-02T16:14:17.755Z,1.63
2022-11-02T16:17:04.794Z,1.30
2022-11-02T16:19:53.043Z,1.20
2022-11-02T16:22:41.222Z,1.27
2022-11-02T16:25:39.704Z,1.60
2022-11-02T16:28:28.945Z,1.27
2022-11-02T16:31:19.742Z,1.52
2022-11-02T16:34:21.861Z,1.50
2022-11-02T16:37:13.779Z,1.38
2022-11-02T16:40:00.953Z,1.27
2022-11-02T16:42:52.723Z,1.52
2022-11-02T16:45:43.801Z,1.40
2022-11-02T16:48:32.994Z,1.35
2022-11-02T16:51:20.376Z,1.90
2022-11-02T16:54:27.813Z,1.80
2022-11-02T16:57:19.372Z,1.38
2022-11-02T17:00:17.569Z,1.65
2022-11-02T17:03:09.823Z,1.90
2022-11-02T17:05:58.777Z,2.03
2022-11-02T17:08:52.804Z,1.98
2022-11-02T17:11:42.844Z,1.58
2022-11-02T17:14:30.370Z,1.75
2022-11-02T17:17:35.877Z,1.77
2022-11-02T17:20:24.389Z,1.98
2022-11-02T17:23:30.068Z,1.83
2022-11-02T17:26:29.648Z,1.98
2022-11-02T17:29:34.899Z,1.70
2022-11-02T17:32:22.624Z,1.92
2022-11-02T17:35:16.772Z,1.98
2022-11-02T17:38:04.624Z,2.15
2022-11-02T17:40:52.375Z,3.20
2022-11-02T17:43:38.355Z,2.05
2022-11-02T17:46:25.663Z,2.28
2022-11-02T17:49:12.710Z,2.20
2022-11-02T17:52:01.405Z,2.22
2022-11-02T17:54:48.570Z,2.92
2022-11-02T17:57:35.743Z,3.27
2022-11-02T18:00:23.477Z,3.30
2022-11-02T18:03:15.980Z,3.47
2022-11-02T18:06:03.264Z,3.40
2022-11-02T18:09:09.072Z,2.97
2022-11-02T18:11:56.055Z,3.05
2022-11-02T18:14:43.561Z,2.95
2022-11-02T18:17:34.748Z,2.53
2022-11-02T18:20:21.912Z,4.17
2022-11-02T18:23:14.880Z,5.70
2022-11-02T18:26:03.148Z,3.20
2022-11-02T18:28:50.424Z,2.70
2022-11-02T18:31:37.666Z,2.63
2022-11-02T18:34:25.010Z,2.33
2022-11-02T18:37:12.249Z,2.60
2022-11-02T18:39:59.670Z,2.10
2022-11-02T18:42:48.274Z,2.55
2022-11-02T18:45:36.326Z,2.40
2022-11-02T18:48:23.407Z,2.50
2022-11-02T18:51:11.007Z,2.80
2022-11-02T18:54:00.403Z,2.43
2022-11-02T18:56:47.783Z,2.47
2022-11-02T18:59:36.861Z,3.20
2022-11-02T19:02:24.560Z,3.00
2022-11-02T19:05:25.887Z,3.13
2022-11-02T19:08:30.144Z,3.87
2022-11-02T19:11:17.157Z,3.57
2022-11-02T19:14:05.041Z,3.60
2022-11-02T19:16:53.684Z,3.13
2022-11-02T19:19:43.131Z,3.60
2022-11-02T19:22:30.202Z,3.70
2022-11-02T19:25:17.532Z,5.80
2022-11-02T19:28:05.382Z,3.97
2022-11-02T19:30:52.385Z,4.57
2022-11-02T19:33:41.081Z,4.37
2022-11-02T19:36:28.343Z,4.50
2022-11-02T19:39:15.647Z,4.47
2022-11-02T19:42:03.400Z,4.33
2022-11-02T19:44:50.565Z,3.83
2022-11-02T19:47:37.845Z,3.63
2022-11-02T19:50:26.343Z,3.63
2022-11-02T19:53:13.552Z,3.70
2022-11-02T19:56:00.695Z,4.00
2022-11-02T19:58:49.525Z,3.07
2022-11-02T20:01:38.748Z,3.70
2022-11-02T20:04:25.601Z,3.60
2022-11-02T20:07:14.360Z,3.60
2022-11-02T20:10:01.731Z,4.70
2022-11-02T20:12:49.382Z,4.87
2022-11-02T20:15:40.425Z,4.87
2022-11-02T20:18:27.792Z,4.23
2022-11-02T20:21:16.615Z,4.30
2022-11-02T20:24:05.703Z,4.40
2022-11-02T20:26:56.093Z,4.17
2022-11-02T20:29:42.938Z,4.10
2022-11-02T20:32:30.743Z,3.87
2022-11-02T20:35:22.721Z,3.67
2022-11-02T20:38:10.025Z,4.40
2022-11-02T20:41:06.951Z,4.30
2022-11-02T20:43:55.721Z,4.40
2022-11-02T20:46:52.727Z,3.97
2022-11-02T20:49:55.966Z,4.10
2022-11-02T20:52:43.053Z,4.37
2022-11-02T20:55:30.528Z,4.23
2022-11-02T20:58:19.008Z,4.40
2022-11-02T21:01:06.551Z,4.33
2022-11-02T21:03:53.628Z,4.70
2022-11-02T21:06:40.894Z,4.07
2022-11-02T21:09:30.189Z,4.20
2022-11-02T21:12:34.708Z,4.27
2022-11-02T21:15:23.057Z,4.33
2022-11-02T21:18:10.034Z,3.63
2022-11-02T21:20:57.061Z,4.30
2022-11-02T21:23:45.107Z,3.97
2022-11-02T21:26:32.432Z,4.10
2022-11-02T21:29:19.619Z,4.17
2022-11-02T21:32:08.693Z,3.93
2022-11-02T21:34:55.853Z,4.27
2022-11-02T21:37:43.144Z,3.93
2022-11-02T21:40:30.351Z,3.60
2022-11-02T21:43:18.139Z,3.83
2022-11-02T21:46:07.208Z,4.03
2022-11-02T21:48:56.267Z,4.07
2022-11-02T21:51:43.714Z,4.17
2022-11-02T21:54:30.981Z,3.60
2022-11-02T21:57:18.209Z,3.73
2022-11-02T22:00:05.614Z,4.13
2022-11-02T22:02:58.745Z,3.80
2022-11-02T22:05:57.231Z,4.07
2022-11-02T22:08:44.787Z,4.17
2022-11-02T22:11:32.032Z,3.80
2022-11-02T22:14:19.026Z,4.30
2022-11-02T22:17:16.713Z,3.63
2022-11-02T22:20:14.113Z,4.17
2022-11-02T22:23:02.653Z,4.30
2022-11-02T22:25:49.691Z,4.50
2022-11-02T22:28:39.386Z,5.67
2022-11-02T22:31:28.719Z,5.13
2022-11-02T22:34:17.111Z,4.80
2022-11-02T22:37:18.059Z,4.73
2022-11-02T22:40:07.257Z,4.90
2022-11-02T22:42:55.199Z,4.57
2022-11-02T22:45:42.898Z,4.53
2022-11-02T22:48:30.148Z,5.60
2022-11-02T22:51:19.038Z,5.20
2022-11-02T22:54:07.810Z,4.50
2022-11-02T22:56:56.673Z,4.60
2022-11-02T22:59:43.533Z,4.90
2022-11-02T23:02:30.827Z,4.60
2022-11-02T23:05:18.177Z,4.57
2022-11-02T23:08:05.953Z,5.17
2022-11-02T23:11:13.457Z,5.33
2022-11-02T23:14:03.320Z,5.10
2022-11-02T23:16:50.222Z,4.43
2022-11-02T23:19:38.193Z,4.63
2022-11-02T23:22:42.991Z,4.80
2022-11-02T23:25:30.018Z,4.17
2022-11-02T23:28:34.708Z,4.60
2022-11-02T23:31:40.473Z,3.77
2022-11-02T23:34:27.593Z,4.50
2022-11-02T23:37:13.837Z,4.07
2022-11-02T23:40:00.902Z,4.50
2022-11-02T23:42:48.333Z,4.40
2022-11-02T23:45:35.777Z,4.60
2022-11-02T23:48:24.363Z,4.40
2022-11-02T23:51:29.781Z,5.30
2022-11-02T23:54:34.185Z,4.77
2022-11-02T23:57:22.461Z,4.77
